Time;durP1;ratioP1;P1;durP2;ratioP2;P2;SDS_P1;SDS_P2;PMS_P1;PMS_P2;Temp;Humidity;BMP_temperature;BMP_pressure;BME280_temperature;BME280_humidity;BME280_pressure;Samples;Min_cycle;Max_cycle;Signal;HPM_P1;HPM_P2
2020/12/09 00:01:23;;;;;;;6.68;4.00;;;;;;;26.20;28.54;95410.97;4969705;28;20174;-41
2020/12/09 00:03:48;;;;;;;6.28;3.60;;;;;;;26.20;28.66;95414.41;4959799;28;20113;-39
2020/12/09 00:06:14;;;;;;;5.05;3.85;;;;;;;26.21;28.68;95415.25;4956891;28;20123;-41
2020/12/09 00:08:40;;;;;;;5.47;3.65;;;;;;;26.21;28.52;95417.88;4961604;28;20615;-40
2020/12/09 00:11:15;;;;;;;6.13;3.85;;;;;;;26.21;28.68;95421.31;4964577;28;20030;-41
2020/12/09 00:13:41;;;;;;;6.25;3.70;;;;;;;26.22;28.54;95430.03;4958969;28;20051;-42
2020/12/09 00:16:07;;;;;;;5.70;3.50;;;;;;;26.22;28.61;95430.03;4961300;28;20097;-39
2020/12/09 00:18:32;;;;;;;4.28;3.25;;;;;;;26.20;28.55;95438.03;4968026;28;20101;-39
2020/12/09 00:20:58;;;;;;;4.50;3.38;;;;;;;26.20;28.36;95432.78;4960851;28;20043;-41
2020/12/09 00:23:24;;;;;;;4.70;3.17;;;;;;;26.20;28.44;95434.59;4960583;28;20042;-41
2020/12/09 00:25:49;;;;;;;4.70;3.45;;;;;;;26.21;28.58;95441.50;4961878;28;20050;-42
2020/12/09 00:28:15;;;;;;;4.38;3.55;;;;;;;26.21;28.65;95441.50;4956517;28;20054;-40
2020/12/09 00:30:41;;;;;;;5.78;3.28;;;;;;;26.20;28.47;95435.41;4962128;28;20105;-43
2020/12/09 00:33:07;;;;;;;5.85;3.60;;;;;;;26.20;28.44;95440.66;4963494;28;20050;-40
2020/12/09 00:35:33;;;;;;;7.63;3.35;;;;;;;26.21;28.62;95437.06;4966318;28;20039;-40
2020/12/09 00:37:59;;;;;;;5.45;3.33;;;;;;;26.20;28.63;95445.09;4964267;28;20122;-41
2020/12/09 00:40:25;;;;;;;4.97;3.40;;;;;;;26.19;28.67;95446.88;4969148;28;20460;-40
2020/12/09 00:42:50;;;;;;;6.28;3.22;;;;;;;26.18;28.51;95442.59;4952985;28;20844;-42
2020/12/09 00:45:16;;;;;;;5.47;3.50;;;;;;;26.19;28.45;95446.03;4950429;28;20515;-42
2020/12/09 00:47:41;;;;;;;5.43;3.22;;;;;;;26.20;28.61;95455.59;4950147;28;20039;-42
2020/12/09 00:50:29;;;;;;;4.47;3.17;;;;;;;26.20;28.54;95447.72;4955914;28;20447;-41
2020/12/09 00:52:54;;;;;;;4.07;3.25;;;;;;;26.20;28.52;95439.84;4964469;28;20133;-41
2020/12/09 00:55:19;;;;;;;2.90;2.60;;;;;;;26.21;28.48;95446.75;4956562;28;20472;-42
2020/12/09 00:57:45;;;;;;;4.97;3.00;;;;;;;26.20;28.51;95442.47;4962437;28;20693;-42
2020/12/09 01:00:10;;;;;;;3.33;2.67;;;;;;;26.20;28.42;95445.09;4959131;28;20039;-40
2020/12/09 01:02:36;;;;;;;3.55;3.03;;;;;;;26.20;28.50;95450.34;4957077;28;20076;-38
2020/12/09 01:05:02;;;;;;;3.65;2.85;;;;;;;26.19;28.44;95453.91;4955363;28;20548;-39
2020/12/09 01:07:27;;;;;;;4.18;3.00;;;;;;;26.19;28.62;95448.66;4960682;28;20417;-42
2020/12/09 01:09:52;;;;;;;5.55;3.20;;;;;;;26.19;28.51;95456.53;4955587;28;20114;-39
2020/12/09 01:12:18;;;;;;;4.70;3.22;;;;;;;26.19;28.62;95448.66;4953670;28;20066;-42
2020/12/09 01:14:44;;;;;;;3.78;2.60;;;;;;;26.19;28.49;95451.28;4960126;28;20038;-39
2020/12/09 01:17:10;;;;;;;5.07;3.20;;;;;;;26.20;28.61;95455.59;4974000;28;20063;-42
2020/12/09 01:19:35;;;;;;;4.45;3.08;;;;;;;26.19;28.50;95464.41;4956517;28;20051;-43
2020/12/09 01:22:04;;;;;;;2.97;2.60;;;;;;;26.19;28.47;95467.03;4959492;28;20030;-43
2020/12/09 01:24:30;;;;;;;3.75;2.80;;;;;;;26.17;28.70;95471.56;4952403;28;20051;-43
2020/12/09 01:26:56;;;;;;;3.90;3.00;;;;;;;26.16;28.51;95460.22;4964783;28;20624;-42
2020/12/09 01:29:21;;;;;;;3.80;2.90;;;;;;;26.18;28.46;95468.00;4956404;28;20060;-40
2020/12/09 01:31:47;;;;;;;4.30;2.90;;;;;;;26.17;28.54;95461.06;4962510;28;20069;-39
2020/12/09 01:34:14;;;;;;;4.40;3.03;;;;;;;26.17;28.60;95461.06;4959366;28;20061;-43
2020/12/09 01:36:39;;;;;;;5.90;2.70;;;;;;;26.18;28.60;95462.75;4955983;28;20049;-45
2020/12/09 01:39:05;;;;;;;4.18;2.80;;;;;;;26.17;28.58;95456.66;4963830;28;20034;-42
2020/12/09 01:41:30;;;;;;;3.90;2.50;;;;;;;26.17;28.36;95467.16;4952319;28;20121;-40
2020/12/09 01:43:56;;;;;;;3.95;2.53;;;;;;;26.16;28.53;95462.03;4956225;28;20043;-44
2020/12/09 01:46:31;;;;;;;3.25;2.70;;;;;;;26.18;28.35;95481.13;4955399;28;20069;-42
2020/12/09 01:48:58;;;;;;;4.22;2.70;;;;;;;26.16;28.42;95488.28;4961639;28;21993;-42
2020/12/09 01:51:23;;;;;;;6.22;2.95;;;;;;;26.13;28.56;95488.50;4955070;28;20039;-43
2020/12/09 01:53:50;;;;;;;4.47;2.75;;;;;;;26.15;28.43;95497.09;4952452;28;20043;-44
2020/12/09 01:56:15;;;;;;;5.85;2.70;;;;;;;26.16;28.37;95496.16;4969531;28;20046;-42
2020/12/09 01:58:41;;;;;;;3.88;2.90;;;;;;;26.16;28.42;95485.66;4964118;28;20089;-39
2020/12/09 02:01:07;;;;;;;4.15;2.70;;;;;;;26.16;28.40;95485.66;4953634;28;20122;-42
2020/12/09 02:03:33;;;;;;;3.15;2.40;;;;;;;26.16;28.35;95485.66;4959071;28;20034;-41
2020/12/09 02:05:58;;;;;;;5.25;2.60;;;;;;;26.12;28.45;95478.97;4960538;28;20452;-43
2020/12/09 02:08:24;;;;;;;3.80;2.67;;;;;;;26.15;28.39;95489.22;4958680;28;20092;-43
2020/12/09 02:11:02;;;;;;;3.25;2.63;;;;;;;26.15;28.43;95494.47;4958507;28;20035;-41
2020/12/09 02:13:28;;;;;;;4.13;2.53;;;;;;;26.14;28.59;95505.94;4953593;28;20034;-42
2020/12/09 02:15:53;;;;;;;3.47;2.40;;;;;;;26.14;28.59;95513.81;4960385;28;20102;-42
2020/12/09 02:18:19;;;;;;;3.60;2.42;;;;;;;26.15;28.44;95518.09;4961014;28;20042;-42
2020/12/09 02:20:45;;;;;;;3.85;2.78;;;;;;;26.15;28.55;95507.59;4961971;28;20042;-41
2020/12/09 02:23:11;;;;;;;4.38;2.80;;;;;;;26.15;28.50;95512.84;4954492;28;20693;-38
2020/12/09 02:25:37;;;;;;;3.70;2.42;;;;;;;26.14;28.61;95513.81;4953811;28;20787;-42
2020/12/09 02:28:03;;;;;;;5.25;2.70;;;;;;;26.15;28.40;95515.47;4954413;28;20500;-40
2020/12/09 02:30:29;;;;;;;3.08;2.35;;;;;;;26.13;28.56;95525.25;4969247;28;20043;-42
2020/12/09 02:32:56;;;;;;;3.75;2.60;;;;;;;26.14;28.54;95525.16;4952077;28;20060;-41
2020/12/09 02:35:22;;;;;;;4.05;2.92;;;;;;;26.13;28.42;95527.88;4957520;28;20472;-40
2020/12/09 02:37:47;;;;;;;4.43;2.85;;;;;;;26.12;28.56;95529.66;4965190;28;20117;-43
2020/12/09 02:40:13;;;;;;;2.55;2.22;;;;;;;26.11;28.54;95533.25;4961409;28;20062;-40
2020/12/09 02:42:39;;;;;;;3.78;2.42;;;;;;;26.12;28.50;95531.47;4956780;28;20077;-39
2020/12/09 02:45:05;;;;;;;3.15;2.65;;;;;;;26.11;28.50;95541.13;4954397;28;20046;-41
2020/12/09 02:47:30;;;;;;;3.60;2.60;;;;;;;26.12;28.49;95541.97;4955448;28;20047;-41
2020/12/09 02:49:56;;;;;;;3.55;2.33;;;;;;;26.13;28.37;95538.41;4965821;28;20097;-42
2020/12/09 02:52:21;;;;;;;3.92;2.70;;;;;;;26.13;28.44;95530.50;4961664;28;20035;-41
2020/12/09 02:54:47;;;;;;;4.15;2.65;;;;;;;26.11;28.27;95535.88;4955822;28;20500;-41
2020/12/09 02:57:13;;;;;;;6.38;2.70;;;;;;;26.12;28.35;95534.09;4962995;28;20070;-38
2020/12/09 02:59:38;;;;;;;3.63;2.60;;;;;;;26.13;28.46;95530.50;4958630;28;20097;-45
2020/12/09 03:02:04;;;;;;;2.80;2.38;;;;;;;26.13;28.38;95535.75;4957614;28;20122;-40
2020/12/09 03:04:30;;;;;;;4.13;2.90;;;;;;;26.12;28.41;95542.78;4960561;28;20117;-41
2020/12/09 03:06:56;;;;;;;4.05;2.70;;;;;;;26.10;28.28;95545.53;4961949;28;20507;-39
2020/12/09 03:09:22;;;;;;;2.33;2.13;;;;;;;26.10;28.36;95550.78;4962212;28;20042;-40
2020/12/09 03:11:48;;;;;;;4.22;2.60;;;;;;;26.10;28.30;95547.34;4963449;28;20506;-41
2020/12/09 03:14:13;;;;;;;3.70;2.80;;;;;;;26.10;28.41;95553.41;4959203;28;20089;-43
2020/12/09 03:16:39;;;;;;;3.40;2.70;;;;;;;26.09;28.32;95564.88;4966119;28;20046;-42
2020/12/09 03:19:05;;;;;;;3.20;2.50;;;;;;;26.10;28.21;95561.28;4962534;28;20112;-44
2020/12/09 03:21:31;;;;;;;3.30;2.60;;;;;;;26.09;28.32;95557.00;4965928;28;20039;-42
2020/12/09 03:23:57;;;;;;;4.35;2.42;;;;;;;26.12;28.21;95549.84;4957601;28;20521;-44
2020/12/09 03:26:26;;;;;;;3.55;2.58;;;;;;;26.12;28.51;95558.56;4965314;28;20034;-38
2020/12/09 03:28:55;;;;;;;2.97;2.47;;;;;;;26.12;28.45;95557.72;4963364;28;20496;-41
2020/12/09 03:31:21;;;;;;;3.08;2.50;;;;;;;26.13;28.19;95559.41;4963225;28;20440;-41
2020/12/09 03:33:47;;;;;;;3.78;2.55;;;;;;;26.11;28.24;95567.38;4973145;28;20047;-42
2020/12/09 03:36:13;;;;;;;2.67;2.30;;;;;;;26.13;28.42;95575.16;4965857;28;20042;-39
2020/12/09 03:38:38;;;;;;;4.03;2.40;;;;;;;26.10;28.43;95570.97;4964354;28;20515;-43
2020/12/09 03:41:04;;;;;;;2.95;2.22;;;;;;;26.10;28.38;95579.66;4961674;28;20047;-40
2020/12/09 03:43:30;;;;;;;4.10;2.60;;;;;;;26.10;28.36;95574.41;4980296;28;20057;-42
2020/12/09 03:45:55;;;;;;;2.75;2.08;;;;;;;26.12;28.35;95573.47;4960836;28;20436;-42
2020/12/09 03:48:21;;;;;;;4.13;2.30;;;;;;;26.12;28.43;95581.34;4965250;28;20053;-41
2020/12/09 03:50:47;;;;;;;5.97;2.35;;;;;;;26.09;28.32;95578.00;4965523;28;20050;-42
2020/12/09 03:53:13;;;;;;;2.80;2.20;;;;;;;26.10;28.32;95571.78;4952977;28;20393;-42
2020/12/09 03:55:39;;;;;;;3.30;2.17;;;;;;;26.10;28.49;95560.47;4976029;28;20041;-43
2020/12/09 03:58:04;;;;;;;3.25;2.40;;;;;;;26.10;28.33;95568.34;4961086;28;20038;-42
2020/12/09 04:00:29;;;;;;;2.85;2.22;;;;;;;26.08;28.29;95563.19;4962067;28;20062;-42
2020/12/09 04:02:55;;;;;;;4.47;2.15;;;;;;;26.09;28.28;95562.25;4959815;28;20146;-42
2020/12/09 04:05:21;;;;;;;3.10;2.38;;;;;;;26.09;28.34;95561.41;4956813;28;20038;-40
2020/12/09 04:07:47;;;;;;;3.17;2.45;;;;;;;26.08;28.35;95555.31;4962941;28;20046;-42
2020/12/09 04:10:13;;;;;;;4.15;2.22;;;;;;;26.09;28.31;95554.38;4965786;28;20050;-43
2020/12/09 04:12:39;;;;;;;3.97;2.20;;;;;;;26.08;28.42;95555.31;4963237;28;20050;-42
2020/12/09 04:15:04;;;;;;;2.90;2.47;;;;;;;26.07;28.38;95566.78;4961162;28;20109;-40
2020/12/09 04:17:30;;;;;;;3.65;2.22;;;;;;;26.08;28.40;95573.69;4961903;28;20039;-42
2020/12/09 04:19:55;;;;;;;2.92;2.35;;;;;;;26.06;28.32;95570.38;4959928;28;20122;-43
2020/12/09 04:22:21;;;;;;;2.60;1.90;;;;;;;26.06;28.25;95575.63;4951949;28;20043;-42
2020/12/09 04:24:46;;;;;;;2.42;2.20;;;;;;;26.06;28.11;95570.38;4955574;28;20050;-39
2020/12/09 04:27:12;;;;;;;2.47;2.25;;;;;;;26.06;28.29;95575.63;4968335;28;20460;-42
2020/12/09 04:29:38;;;;;;;3.38;2.13;;;;;;;26.06;28.32;95570.38;4956545;28;20061;-43
2020/12/09 04:32:04;;;;;;;4.80;2.30;;;;;;;26.06;28.34;95573.00;4962547;28;20038;-40
2020/12/09 04:34:30;;;;;;;3.08;2.15;;;;;;;26.06;28.43;95578.25;4960341;28;20034;-42
2020/12/09 04:36:56;;;;;;;3.38;2.25;;;;;;;26.05;28.41;95573.91;4960723;28;20104;-41
2020/12/09 04:39:22;;;;;;;2.50;2.03;;;;;;;26.06;28.36;95575.63;4959723;28;20073;-41
2020/12/09 04:41:48;;;;;;;2.53;2.05;;;;;;;26.05;28.24;95581.78;4960741;28;20050;-40
2020/12/09 04:44:14;;;;;;;2.55;2.30;;;;;;;26.05;28.43;95581.78;4949009;28;20047;-42
2020/12/09 04:46:46;;;;;;;3.88;2.60;;;;;;;26.04;28.34;95581.91;4962596;28;20049;-42
2020/12/09 04:49:13;;;;;;;3.47;2.40;;;;;;;26.03;28.38;95581.09;4958299;28;20134;-41
2020/12/09 04:52:06;;;;;;;2.70;2.20;;;;;;;26.02;28.40;95595.16;4960921;28;20057;-42
2020/12/09 04:54:39;;;;;;;2.88;2.47;;;;;;;26.01;28.33;95598.72;4954578;28;20606;-39
2020/12/09 04:57:33;;;;;;;2.65;2.13;;;;;;;26.00;28.35;95602.28;4963988;28;20133;-40
2020/12/09 04:59:59;;;;;;;2.35;2.15;;;;;;;26.01;28.31;95597.91;4976521;28;20033;-39
2020/12/09 05:02:36;;;;;;;2.63;2.40;;;;;;;25.99;28.43;95603.25;4963166;28;20031;-41
2020/12/09 05:05:02;;;;;;;2.90;2.30;;;;;;;26.01;28.45;95616.28;4956383;28;20042;-44
2020/12/09 05:07:31;;;;;;;2.53;2.20;;;;;;;26.00;28.42;95611.97;4958535;28;20124;-41
2020/12/09 05:09:56;;;;;;;3.03;2.30;;;;;;;25.99;28.49;95611.13;4961483;28;20054;-42
2020/12/09 05:12:21;;;;;;;3.35;2.38;;;;;;;25.99;28.40;95613.75;4976414;28;20054;-41
2020/12/09 05:14:48;;;;;;;2.65;2.20;;;;;;;25.98;28.37;95614.72;4956983;28;20047;-41
2020/12/09 05:17:18;;;;;;;3.42;2.33;;;;;;;25.98;28.26;95619.97;4952953;28;20050;-40
2020/12/09 05:19:44;;;;;;;2.60;2.20;;;;;;;25.98;28.33;95619.97;4960685;28;20489;-42
2020/12/09 05:22:14;;;;;;;3.33;2.20;;;;;;;25.97;28.32;95623.50;4958896;28;20660;-43
2020/12/09 05:24:39;;;;;;;5.90;2.60;;;;;;;25.98;28.32;95619.97;4968476;28;20488;-38
2020/12/09 05:27:05;;;;;;;2.97;2.20;;;;;;;25.98;28.48;95614.72;4954124;28;20104;-43
2020/12/09 05:29:31;;;;;;;2.55;2.00;;;;;;;25.98;28.49;95626.97;4952702;28;20089;-41
2020/12/09 05:32:01;;;;;;;2.90;2.20;;;;;;;25.98;28.33;95630.47;4955683;28;20074;-43
2020/12/09 05:34:33;;;;;;;4.25;2.50;;;;;;;25.97;28.40;95634.00;4960285;28;20133;-42
2020/12/09 05:37:05;;;;;;;2.63;2.17;;;;;;;25.97;28.43;95644.50;4956203;28;20081;-45
2020/12/09 05:39:31;;;;;;;2.90;2.40;;;;;;;25.96;28.26;95642.84;4961983;28;20042;-41
2020/12/09 05:41:57;;;;;;;3.28;2.22;;;;;;;25.95;28.39;95647.28;4962950;28;20069;-40
2020/12/09 05:44:23;;;;;;;4.20;2.40;;;;;;;25.94;28.33;95639.50;4959670;28;20097;-38
2020/12/09 05:47:02;;;;;;;4.35;2.33;;;;;;;25.94;28.32;95639.50;4963594;28;20082;-42
2020/12/09 05:49:33;;;;;;;7.47;2.30;;;;;;;25.95;28.34;95641.16;4952951;28;20054;-42
2020/12/09 05:52:17;;;;;;;1.90;1.80;;;;;;;25.94;28.46;95639.50;4965059;28;20046;-40
2020/12/09 05:54:46;;;;;;;3.55;2.08;;;;;;;25.95;28.53;95646.41;4953476;28;20026;-40
2020/12/09 05:57:14;;;;;;;2.90;2.30;;;;;;;25.94;28.40;95639.50;4960094;28;20043;-41
2020/12/09 05:59:47;;;;;;;2.53;1.92;;;;;;;25.93;28.62;95633.41;4954100;28;20038;-40
2020/12/09 06:02:13;;;;;;;2.78;1.92;;;;;;;25.93;28.45;95635.22;4955106;28;20062;-42
2020/12/09 06:04:45;;;;;;;4.47;1.90;;;;;;;25.91;28.64;95631.84;4962902;28;20046;-40
2020/12/09 06:07:11;;;;;;;2.25;1.90;;;;;;;25.92;28.38;95631.72;4970197;28;20419;-42
2020/12/09 06:09:38;;;;;;;3.33;1.90;;;;;;;25.93;28.61;95635.22;4965058;28;20039;-43
2020/12/09 06:12:04;;;;;;;2.55;2.10;;;;;;;25.92;28.36;95636.13;4958486;28;20047;-45
2020/12/09 06:14:30;;;;;;;2.20;1.85;;;;;;;25.92;28.63;95641.38;4962291;28;20049;-42
2020/12/09 06:16:56;;;;;;;2.55;1.88;;;;;;;25.92;28.55;95651.88;4958615;28;20138;-44
2020/12/09 06:19:22;;;;;;;2.30;2.08;;;;;;;25.92;28.53;95662.38;4966376;28;20409;-40
2020/12/09 06:21:54;;;;;;;2.67;1.98;;;;;;;25.90;28.43;95662.47;4962959;28;20074;-42
2020/12/09 06:24:19;;;;;;;2.38;2.08;;;;;;;25.91;28.50;95655.47;4957317;28;20248;-42
2020/12/09 06:26:48;;;;;;;2.28;2.08;;;;;;;25.91;28.57;95655.47;4964398;28;20046;-43
2020/12/09 06:29:13;;;;;;;8.43;5.60;;;;;;;25.88;27.68;95658.28;4957309;28;20230;-41
2020/12/09 06:31:39;;;;;;;8.25;4.70;;;;;;;25.86;28.00;95662.84;4963024;28;20043;-42
2020/12/09 06:34:12;;;;;;;3.45;2.60;;;;;;;25.85;28.63;95661.16;4964285;28;20118;-40
2020/12/09 06:36:38;;;;;;;3.33;2.53;;;;;;;25.83;28.68;95658.66;4965610;28;20135;-42
2020/12/09 06:39:15;;;;;;;3.80;2.40;;;;;;;25.83;28.73;95654.22;4961448;28;20042;-42
2020/12/09 06:41:41;;;;;;;2.35;2.15;;;;;;;25.83;28.82;95654.22;4953985;28;20047;-41
2020/12/09 06:44:11;;;;;;;2.22;2.00;;;;;;;25.85;28.82;95655.91;4963248;28;20508;-42
2020/12/09 06:46:37;;;;;;;3.20;2.08;;;;;;;25.85;28.63;95655.91;4957161;28;20525;-44
2020/12/09 06:49:04;;;;;;;2.42;2.00;;;;;;;25.85;28.74;95661.97;4959915;28;20046;-44
2020/12/09 06:51:40;;;;;;;2.42;2.10;;;;;;;25.86;28.83;95662.84;4959369;28;20037;-42
2020/12/09 06:54:12;;;;;;;2.72;1.88;;;;;;;25.86;28.66;95668.94;4953659;28;20046;-42
2020/12/09 06:56:38;;;;;;;2.53;2.00;;;;;;;25.86;28.68;95674.19;4953655;28;20046;-43
2020/12/09 06:59:22;;;;;;;2.58;1.80;;;;;;;25.83;28.76;95667.34;4954414;28;20520;-42
2020/12/09 07:02:03;;;;;;;5.53;2.30;;;;;;;25.82;28.71;95676.16;4954802;28;20039;-43
2020/12/09 07:04:53;;;;;;;6.10;2.60;;;;;;;25.80;28.59;95675.44;4953712;28;20046;-42
2020/12/09 07:07:37;;;;;;;4.45;2.72;;;;;;;25.78;28.88;95687.81;4965034;28;20039;-38
2020/12/09 07:10:25;;;;;;;4.78;2.50;;;;;;;25.77;28.78;95691.41;4954837;28;20035;-44
2020/12/09 07:13:06;;;;;;;7.93;2.88;;;;;;;25.76;28.78;95694.97;4954670;28;20042;-42
2020/12/09 07:15:32;;;;;;;4.70;3.30;;;;;;;25.75;28.69;95690.69;4954538;28;20041;-43
2020/12/09 07:17:58;;;;;;;2.92;2.35;;;;;;;25.75;28.64;95698.56;4959276;28;20939;-43
2020/12/09 07:20:24;;;;;;;5.68;2.10;;;;;;;25.78;28.72;95697.50;4953382;28;20059;-43
2020/12/09 07:22:49;;;;;;;2.08;1.88;;;;;;;25.80;28.88;95701.69;4953244;28;20058;-41
2020/12/09 07:25:15;;;;;;;4.45;2.00;;;;;;;25.82;28.96;95705.03;4953335;28;20038;-43
2020/12/09 07:27:40;;;;;;;2.85;2.10;;;;;;;25.82;28.76;95705.03;4955357;28;20105;-42
2020/12/09 07:30:11;;;;;;;6.63;4.95;;;;;;;25.80;27.50;95711.34;4952084;28;20063;-43
2020/12/09 07:32:36;;;;;;;3.35;2.58;;;;;;;25.79;28.54;95715.75;4955411;28;20051;-45
2020/12/09 07:35:12;;;;;;;2.85;2.20;;;;;;;25.80;28.76;95717.44;4953120;28;20829;-38
2020/12/09 07:37:43;;;;;;;2.55;1.80;;;;;;;25.80;28.96;95720.06;4956586;28;20109;-43
2020/12/09 07:40:29;;;;;;;3.58;2.00;;;;;;;25.81;29.05;95719.09;4954521;28;20852;-42
2020/12/09 07:42:57;;;;;;;3.20;2.03;;;;;;;25.80;28.99;95721.84;4957087;28;20039;-41
2020/12/09 07:45:24;;;;;;;3.03;1.83;;;;;;;25.78;29.21;95727.19;4954445;28;20473;-45
2020/12/09 07:47:49;;;;;;;2.72;1.73;;;;;;;25.79;29.11;95725.41;4954036;28;20054;-41
2020/12/09 07:50:15;;;;;;;2.97;1.67;;;;;;;25.79;29.22;95726.25;4957000;28;20057;-43
2020/12/09 07:52:41;;;;;;;1.67;1.58;;;;;;;25.81;29.25;95728.75;4952621;28;20524;-45
2020/12/09 07:55:17;;;;;;;1.90;1.67;;;;;;;25.81;29.19;95729.59;4958324;28;20047;-42
2020/12/09 07:57:43;;;;;;;3.50;1.80;;;;;;;25.81;29.20;95726.97;4956222;28;20062;-45
2020/12/09 08:00:10;;;;;;;2.40;1.63;;;;;;;25.84;29.08;95725.91;4953575;28;20046;-40
2020/12/09 08:02:37;;;;;;;2.70;1.80;;;;;;;25.85;29.03;95724.16;4957061;28;20516;-41
2020/12/09 08:05:12;;;;;;;2.83;1.50;;;;;;;25.84;29.03;95720.66;4956235;28;20074;-42
2020/12/09 08:07:54;;;;;;;1.75;1.40;;;;;;;25.83;29.09;95732.94;4957058;28;20035;-44
2020/12/09 08:10:32;;;;;;;4.25;1.45;;;;;;;25.85;29.06;95729.41;4956602;28;20109;-42
2020/12/09 08:13:08;;;;;;;2.58;1.70;;;;;;;25.86;29.15;95733.69;4954313;28;20054;-42
2020/12/09 08:15:35;;;;;;;2.03;1.63;;;;;;;25.86;29.30;95736.31;4954580;28;20156;-42
2020/12/09 08:18:01;;;;;;;4.30;1.50;;;;;;;25.87;29.18;95732.75;4959219;28;20145;-42
2020/12/09 08:20:27;;;;;;;1.42;1.30;;;;;;;25.86;29.24;95733.69;4958232;28;20035;-42
2020/12/09 08:22:54;;;;;;;1.98;1.20;;;;;;;25.86;29.17;95742.41;4955634;28;20066;-41
2020/12/09 08:25:20;;;;;;;2.63;1.65;;;;;;;25.86;29.29;95739.78;4953891;28;20106;-44
2020/12/09 08:27:46;;;;;;;2.80;1.45;;;;;;;25.87;29.37;95753.72;4956877;28;20043;-45
2020/12/09 08:30:22;;;;;;;2.83;1.50;;;;;;;25.87;29.28;95753.72;4955775;28;20051;-39
2020/12/09 08:33:13;;;;;;;1.95;1.30;;;;;;;25.88;29.16;95758.03;4956743;28;20043;-40
2020/12/09 08:35:41;;;;;;;1.75;1.60;;;;;;;25.85;29.27;95758.25;4958489;28;20042;-42
2020/12/09 08:38:07;;;;;;;2.25;1.60;;;;;;;25.75;29.54;95764.16;4955881;28;20046;-40
2020/12/09 08:40:34;;;;;;;2.92;2.10;;;;;;;25.63;29.70;95767.63;4955252;28;20105;-43
2020/12/09 08:42:59;;;;;;;2.42;1.77;;;;;;;25.52;29.96;95766.53;4957928;28;20693;-45
2020/12/09 08:45:26;;;;;;;3.47;1.48;;;;;;;25.44;30.18;95774.09;4954734;28;20097;-40
2020/12/09 08:47:52;;;;;;;4.45;1.88;;;;;;;25.41;30.16;95774.28;4952409;28;20501;-40
2020/12/09 08:50:18;;;;;;;2.67;1.60;;;;;;;25.39;30.36;95770.91;4954620;28;22024;-44
2020/12/09 08:52:43;;;;;;;1.95;1.70;;;;;;;25.41;30.23;95779.53;4957145;28;20046;-41
2020/12/09 08:55:08;;;;;;;2.13;1.75;;;;;;;25.44;30.18;95784.59;4955802;28;20051;-42
2020/12/09 08:57:34;;;;;;;3.88;1.83;;;;;;;25.49;30.09;95785.13;4958607;28;20034;-48
2020/12/09 09:00:01;;;;;;;1.75;1.50;;;;;;;25.53;30.20;95778.72;4955615;28;20049;-43
2020/12/09 09:02:27;;;;;;;2.08;1.50;;;;;;;25.59;30.14;95774.03;4954069;28;20955;-41
2020/12/09 09:04:53;;;;;;;4.47;1.50;;;;;;;25.63;29.89;95778.13;4953250;28;20047;-42
2020/12/09 09:07:20;;;;;;;19.65;14.65;;;;;;;25.46;21.44;95774.81;4957444;28;20043;-41
2020/12/09 09:09:47;;;;;;;21.92;15.43;;;;;;;24.89;20.47;95784.69;4955691;28;20757;-37
2020/12/09 09:12:12;;;;;;;22.60;16.50;;;;;;;24.27;20.25;95787.66;4956150;28;20039;-40
2020/12/09 09:14:38;;;;;;;22.80;17.15;;;;;;;23.60;21.13;95790.81;4953087;28;20057;-42
2020/12/09 09:17:03;;;;;;;22.58;17.80;;;;;;;23.00;22.28;95796.00;4946088;28;20068;-43
2020/12/09 09:19:29;;;;;;;18.90;14.07;;;;;;;22.52;24.63;95799.50;4953535;28;20042;-43
2020/12/09 09:21:55;;;;;;;15.77;11.20;;;;;;;22.27;26.17;95794.78;4977892;28;20218;-41
2020/12/09 09:24:20;;;;;;;11.38;9.85;;;;;;;22.22;27.56;95797.63;4960685;28;20197;-43
2020/12/09 09:26:46;;;;;;;10.93;8.45;;;;;;;22.31;28.42;95798.91;4958943;28;20764;-40
2020/12/09 09:29:11;;;;;;;9.32;7.15;;;;;;;22.48;28.65;95803.19;4956613;28;20054;-40
2020/12/09 09:31:37;;;;;;;11.73;6.53;;;;;;;22.68;28.83;95794.28;4953268;28;20092;-41
2020/12/09 09:34:03;;;;;;;9.20;5.95;;;;;;;22.92;28.93;95791.19;4917874;29;20043;-42
2020/12/09 09:36:30;;;;;;;9.98;5.32;;;;;;;23.15;28.77;95796.88;4921377;29;20055;-45
2020/12/09 09:38:55;;;;;;;7.78;5.00;;;;;;;23.40;28.46;95795.47;4918351;29;20150;-43
2020/12/09 09:41:21;;;;;;;8.93;4.45;;;;;;;23.63;28.65;95785.41;4917621;28;20050;-42
2020/12/09 09:43:46;;;;;;;6.53;4.20;;;;;;;23.73;28.23;95768.25;4914355;29;20560;-42
2020/12/09 09:46:12;;;;;;;8.57;3.97;;;;;;;24.07;27.94;95780.19;4934554;28;20047;-42
2020/12/09 09:48:38;;;;;;;11.63;5.30;;;;;;;24.27;27.94;95779.81;4931515;28;20067;-43
2020/12/09 09:51:04;;;;;;;9.45;4.55;;;;;;;24.44;27.59;95775.25;4934403;28;20127;-40
2020/12/09 09:53:30;;;;;;;15.23;4.10;;;;;;;24.51;30.48;95779.19;4935332;28;20504;-42
2020/12/09 09:55:56;;;;;;;7.57;3.78;;;;;;;24.61;27.70;95775.97;4936831;28;20977;-37
2020/12/09 09:58:22;;;;;;;14.98;3.90;;;;;;;24.73;27.59;95777.81;4937414;28;20039;-40
2020/12/09 10:00:49;;;;;;;16.98;4.07;;;;;;;24.86;27.69;95784.91;4937291;28;20130;-40
2020/12/09 10:03:14;;;;;;;18.13;4.38;;;;;;;24.99;27.50;95779.69;4934884;28;20085;-40
2020/12/09 10:05:40;;;;;;;19.48;5.13;;;;;;;25.14;27.13;95777.84;4941989;28;20044;-41
2020/12/09 10:08:05;;;;;;;22.77;5.15;;;;;;;25.27;27.04;95781.31;4947118;28;20043;-42
2020/12/09 10:10:31;;;;;;;27.33;5.30;;;;;;;25.40;26.97;95777.88;4948196;28;20086;-37
2020/12/09 10:12:57;;;;;;;18.88;5.07;;;;;;;25.49;26.75;95776.41;4941211;28;20616;-40
2020/12/09 10:15:23;;;;;;;22.85;5.63;;;;;;;25.60;26.76;95783.56;4946535;28;20448;-37
2020/12/09 10:17:49;;;;;;;18.98;5.60;;;;;;;25.67;26.66;95784.84;4950093;28;20055;-40
2020/12/09 10:20:14;;;;;;;21.58;6.25;;;;;;;25.73;26.79;95784.41;4946664;28;20094;-38
2020/12/09 10:22:40;;;;;;;19.88;5.35;;;;;;;25.79;26.60;95783.13;4942285;28;20465;-42
2020/12/09 10:25:06;;;;;;;18.20;5.50;;;;;;;25.83;26.50;95785.44;4948470;28;20063;-41
2020/12/09 10:27:32;;;;;;;17.90;5.10;;;;;;;25.89;26.60;95788.59;4963325;28;20612;-43
2020/12/09 10:29:58;;;;;;;18.83;5.10;;;;;;;25.92;26.72;95785.75;4946133;28;20078;-41
2020/12/09 10:32:25;;;;;;;17.70;5.30;;;;;;;25.95;26.49;95780.28;4946849;28;20246;-39
2020/12/09 10:34:50;;;;;;;16.63;4.95;;;;;;;25.97;26.72;95781.00;4943677;28;20043;-41
2020/12/09 10:37:16;;;;;;;20.58;5.10;;;;;;;25.99;26.61;95773.88;4948872;28;20079;-41
2020/12/09 10:39:41;;;;;;;17.60;5.20;;;;;;;26.00;26.81;95775.56;4944251;28;20046;-45
2020/12/09 10:42:07;;;;;;;14.70;5.05;;;;;;;25.99;26.80;95779.13;4942020;28;20059;-42
2020/12/09 10:44:33;;;;;;;13.70;4.50;;;;;;;25.98;26.63;95780.09;4944225;28;20039;-39
2020/12/09 10:47:01;;;;;;;12.90;4.25;;;;;;;26.00;26.84;95777.34;4948061;28;20560;-41
2020/12/09 10:49:32;;;;;;;14.85;4.53;;;;;;;25.98;26.79;95776.59;4947847;28;20027;-41
2020/12/09 10:51:57;;;;;;;11.20;4.38;;;;;;;26.00;26.95;95783.44;4947923;28;20095;-38
2020/12/09 10:54:23;;;;;;;12.20;4.28;;;;;;;26.00;26.83;95791.31;4964609;28;20039;-37
2020/12/09 10:56:48;;;;;;;11.85;4.15;;;;;;;26.00;26.78;95778.19;4947347;28;20489;-43
2020/12/09 10:59:17;;;;;;;13.68;4.18;;;;;;;26.00;26.82;95780.81;4947115;28;20050;-39
2020/12/09 11:01:43;;;;;;;10.93;4.18;;;;;;;26.00;27.03;95780.81;4942572;28;20067;-42
2020/12/09 11:04:09;;;;;;;9.13;3.83;;;;;;;26.00;26.95;95777.34;4938683;28;20035;-43
2020/12/09 11:06:37;;;;;;;8.63;4.28;;;;;;;25.99;27.15;95768.63;4940992;28;20043;-42
2020/12/09 11:09:05;;;;;;;8.65;3.58;;;;;;;26.00;26.97;95764.22;4950793;28;20126;-42
2020/12/09 11:11:30;;;;;;;8.73;4.10;;;;;;;26.00;27.14;95772.94;4946665;28;20090;-40
2020/12/09 11:13:56;;;;;;;10.00;4.18;;;;;;;25.98;27.06;95769.59;4946350;28;20601;-39
2020/12/09 11:16:22;;;;;;;8.35;3.65;;;;;;;25.98;27.20;95755.59;4949366;28;20417;-40
2020/12/09 11:18:48;;;;;;;8.57;3.60;;;;;;;25.97;27.14;95760.00;4952976;28;20528;-41
2020/12/09 11:21:21;;;;;;;9.20;3.53;;;;;;;25.95;27.17;95751.41;4950155;28;20043;-40
2020/12/09 11:23:46;;;;;;;9.30;3.78;;;;;;;25.96;27.30;95753.09;4946878;28;20127;-43
2020/12/09 11:26:12;;;;;;;7.93;3.60;;;;;;;25.97;27.30;95752.13;4953060;28;20300;-42
2020/12/09 11:28:38;;;;;;;7.22;3.58;;;;;;;25.96;27.30;95753.09;4949139;28;20038;-39
2020/12/09 11:31:03;;;;;;;7.05;3.00;;;;;;;25.93;27.28;95748.91;4938294;28;20075;-41
2020/12/09 11:33:29;;;;;;;8.88;3.13;;;;;;;25.94;27.23;95761.06;4953092;28;20043;-41